Time;durP1;ratioP1;P1;durP2;ratioP2;P2;SDS_P1;SDS_P2;PMS_P1;PMS_P2;Temp;Humidity;BMP_temperature;BMP_pressure;BME280_temperature;BME280_humidity;BME280_pressure;Samples;Min_cycle;Max_cycle;Signal;HPM_P1;HPM_P2
2022/05/13 00:01:12;;;;;;;6.35;3.42;;;23.50;43.60;;;;;;5018140;28;20032;-76
2022/05/13 00:03:39;;;;;;;4.93;2.65;;;23.40;43.90;;;;;;5013140;28;20467;-75
2022/05/13 00:06:05;;;;;;;6.05;2.97;;;23.50;44.20;;;;;;5012268;28;20026;-75
2022/05/13 00:08:31;;;;;;;6.15;2.88;;;23.50;43.70;;;;;;5013260;28;20033;-75
2022/05/13 00:10:58;;;;;;;7.50;2.58;;;23.40;43.30;;;;;;5020414;28;20068;-75
2022/05/13 00:13:23;;;;;;;8.55;2.63;;;23.50;43.50;;;;;;5027863;28;20083;-75
2022/05/13 00:15:50;;;;;;;5.15;2.63;;;23.50;43.60;;;;;;5011856;28;20486;-75
2022/05/13 00:18:16;;;;;;;7.20;2.42;;;23.50;43.60;;;;;;5011963;28;20018;-75
2022/05/13 00:20:43;;;;;;;7.40;2.30;;;23.50;43.80;;;;;;5020009;28;20037;-75
2022/05/13 00:23:09;;;;;;;4.18;2.25;;;23.50;43.50;;;;;;5010632;28;20068;-75
2022/05/13 00:25:38;;;;;;;4.57;2.53;;;23.50;43.50;;;;;;5009763;28;20482;-75
2022/05/13 00:28:06;;;;;;;4.43;2.28;;;23.40;43.50;;;;;;5023262;28;20394;-76
2022/05/13 00:30:35;;;;;;;6.22;2.40;;;23.40;43.60;;;;;;5025068;28;20041;-75
2022/05/13 00:33:01;;;;;;;6.22;2.78;;;23.50;43.70;;;;;;5028792;28;20037;-75
2022/05/13 00:35:27;;;;;;;4.47;2.15;;;23.40;43.70;;;;;;5005338;28;20039;-75
2022/05/13 00:37:53;;;;;;;4.78;2.10;;;23.40;43.40;;;;;;5011470;28;20018;-75
2022/05/13 00:40:21;;;;;;;6.47;2.13;;;23.40;43.30;;;;;;5018503;28;20489;-75
2022/05/13 00:42:48;;;;;;;5.45;2.10;;;23.40;43.50;;;;;;5018053;28;20101;-74
2022/05/13 00:45:14;;;;;;;5.85;2.20;;;23.40;43.40;;;;;;5022793;28;20025;-75
2022/05/13 00:47:41;;;;;;;5.72;2.28;;;23.40;43.90;;;;;;5026268;28;20060;-75
2022/05/13 00:50:08;;;;;;;8.57;2.17;;;23.40;43.30;;;;;;5011981;28;20084;-75
2022/05/13 00:52:34;;;;;;;3.60;2.17;;;23.40;43.50;;;;;;5011592;28;20449;-75
2022/05/13 00:55:08;;;;;;;6.72;2.33;;;23.40;43.40;;;;;;4978106;28;20021;-75
2022/05/13 00:57:35;;;;;;;4.38;1.95;;;23.40;43.60;;;;;;5010878;28;20363;-75
2022/05/13 01:00:04;;;;;;;9.70;2.53;;;23.40;43.50;;;;;;5021083;28;20021;-75
2022/05/13 01:02:33;;;;;;;10.65;1.92;;;23.40;43.90;;;;;;5017521;28;20026;-75
2022/05/13 01:04:59;;;;;;;5.43;2.10;;;23.40;43.60;;;;;;5018238;28;20037;-75
2022/05/13 01:07:25;;;;;;;6.40;2.20;;;23.40;43.20;;;;;;5018325;28;20030;-75
2022/05/13 01:09:56;;;;;;;5.28;2.08;;;23.40;43.70;;;;;;5007717;28;20110;-75
2022/05/13 01:12:29;;;;;;;5.57;2.00;;;23.40;43.30;;;;;;4995163;28;20027;-75
2022/05/13 01:15:00;;;;;;;3.95;1.85;;;23.40;43.50;;;;;;5016985;28;20033;-75
2022/05/13 01:20:19;;;;;;;3.75;1.88;;;23.40;43.30;;;;;;5028136;28;20018;-74
2022/05/13 01:22:58;;;;;;;5.47;2.20;;;23.40;43.50;;;;;;5010607;28;20025;-75
2022/05/13 01:25:27;;;;;;;3.50;1.80;;;23.40;43.50;;;;;;5011205;28;20026;-75
2022/05/13 01:27:55;;;;;;;6.10;1.77;;;23.40;43.80;;;;;;5010205;28;20105;-75
2022/05/13 01:30:25;;;;;;;3.80;1.80;;;23.40;43.40;;;;;;5016326;28;20033;-75
2022/05/13 01:32:51;;;;;;;;;;;23.40;43.50;;;;;;5010512;28;20505;-75
2022/05/13 01:35:17;;;;;;;4.20;1.80;;;23.30;43.70;;;;;;5010378;28;19917;-75
2022/05/13 01:37:43;;;;;;;4.47;1.73;;;23.40;43.30;;;;;;4977519;28;20034;-75
2022/05/13 01:40:10;;;;;;;4.03;2.00;;;23.30;43.30;;;;;;5013591;28;20022;-74
2022/05/13 01:42:36;;;;;;;5.38;1.75;;;23.40;43.30;;;;;;5030712;28;20052;-75
2022/05/13 01:45:03;;;;;;;6.00;1.70;;;23.40;43.60;;;;;;5026185;28;20069;-76
2022/05/13 01:47:29;;;;;;;6.97;1.85;;;23.30;43.60;;;;;;5011398;28;20026;-75
2022/05/13 01:49:56;;;;;;;4.93;1.65;;;23.40;43.40;;;;;;5010416;28;20022;-75
2022/05/13 01:52:22;;;;;;;2.92;1.60;;;23.30;43.50;;;;;;5014067;28;20052;-75
2022/05/13 01:54:47;;;;;;;2.72;1.42;;;23.40;43.60;;;;;;5005225;28;20033;-76
2022/05/13 01:57:13;;;;;;;4.25;1.65;;;23.30;43.60;;;;;;4997700;28;20040;-75
2022/05/13 01:59:39;;;;;;;6.72;1.70;;;23.30;43.40;;;;;;5010738;28;20018;-75
2022/05/13 02:02:05;;;;;;;3.65;1.77;;;23.40;43.70;;;;;;4993142;28;20048;-74
2022/05/13 02:04:31;;;;;;;3.45;1.48;;;23.40;43.50;;;;;;5010503;28;20034;-75
2022/05/13 02:06:56;;;;;;;3.40;1.42;;;23.40;43.50;;;;;;5010803;28;20037;-75
2022/05/13 02:09:23;;;;;;;4.18;1.88;;;23.30;43.40;;;;;;5017615;28;20022;-75
2022/05/13 02:11:49;;;;;;;5.03;1.80;;;23.30;43.40;;;;;;5025912;28;20469;-75
2022/05/13 02:14:16;;;;;;;2.85;1.38;;;23.30;43.70;;;;;;5005516;28;20018;-75
2022/05/13 02:16:42;;;;;;;3.70;1.58;;;23.30;43.30;;;;;;5008020;28;20045;-75
2022/05/13 02:19:08;;;;;;;3.90;1.67;;;23.30;43.50;;;;;;5002064;28;20474;-75
2022/05/13 02:21:35;;;;;;;2.83;1.33;;;23.30;43.60;;;;;;5017185;28;20058;-74
2022/05/13 02:24:01;;;;;;;3.28;1.50;;;23.30;43.70;;;;;;5008515;28;20038;-75
2022/05/13 02:26:27;;;;;;;4.30;1.85;;;23.30;43.40;;;;;;5028527;28;20056;-75
2022/05/13 02:28:53;;;;;;;5.50;1.98;;;23.30;43.50;;;;;;5030832;28;20061;-75
2022/05/13 02:31:18;;;;;;;6.32;1.63;;;23.30;43.50;;;;;;4997506;28;20072;-75
2022/05/13 02:33:44;;;;;;;4.85;1.63;;;23.30;43.30;;;;;;5008888;28;20402;-75
2022/05/13 02:36:11;;;;;;;4.20;1.70;;;23.30;43.50;;;;;;5010696;28;20033;-74
2022/05/13 02:38:37;;;;;;;5.63;1.75;;;23.30;43.40;;;;;;5010299;28;20398;-74
2022/05/13 02:41:13;;;;;;;2.97;1.52;;;23.30;43.50;;;;;;5008850;28;20034;-74
2022/05/13 02:43:42;;;;;;;5.28;1.50;;;23.30;43.50;;;;;;5020057;28;20022;-75
2022/05/13 02:46:08;;;;;;;5.05;1.67;;;23.30;43.40;;;;;;5017354;28;20437;-75
2022/05/13 02:48:34;;;;;;;3.35;1.50;;;23.30;43.50;;;;;;5010930;28;20030;-75
2022/05/13 02:50:59;;;;;;;4.15;1.60;;;23.30;43.50;;;;;;5008989;28;20022;-75
2022/05/13 02:53:25;;;;;;;3.45;1.58;;;23.30;43.40;;;;;;5007989;28;20076;-74
2022/05/13 02:55:51;;;;;;;4.35;1.35;;;23.30;43.50;;;;;;5014474;28;20552;-75
2022/05/13 02:58:17;;;;;;;3.38;1.48;;;23.30;43.60;;;;;;5021671;28;20025;-74
2022/05/13 03:00:46;;;;;;;4.07;1.55;;;23.30;43.50;;;;;;5030692;28;20486;-75
2022/05/13 03:03:12;;;;;;;2.30;1.50;;;23.30;43.60;;;;;;5012473;28;20072;-74
2022/05/13 03:05:38;;;;;;;4.78;1.73;;;23.30;43.70;;;;;;4995444;28;20026;-75
2022/05/13 03:08:07;;;;;;;3.17;1.35;;;23.30;43.60;;;;;;5014267;28;20100;-75
2022/05/13 03:10:36;;;;;;;4.90;1.60;;;23.30;43.70;;;;;;5013395;28;20060;-75
2022/05/13 03:13:03;;;;;;;4.53;1.45;;;23.30;43.70;;;;;;5012683;28;20040;-75
2022/05/13 03:15:28;;;;;;;4.22;1.75;;;23.30;43.90;;;;;;5021466;28;20061;-75
2022/05/13 03:17:55;;;;;;;3.72;1.35;;;23.20;43.60;;;;;;5020007;28;20045;-75
2022/05/13 03:20:23;;;;;;;3.33;1.70;;;23.20;43.80;;;;;;5013552;28;20363;-75
2022/05/13 03:22:51;;;;;;;5.30;1.60;;;23.20;43.80;;;;;;4995660;28;20189;-75
2022/05/13 03:25:17;;;;;;;3.67;1.60;;;23.20;43.60;;;;;;5010616;28;20060;-75
2022/05/13 03:27:43;;;;;;;3.45;1.45;;;23.20;43.90;;;;;;5011355;28;20087;-75
2022/05/13 03:30:12;;;;;;;4.15;1.75;;;23.20;43.80;;;;;;5025545;28;20022;-75
2022/05/13 03:32:37;;;;;;;2.92;1.60;;;23.30;43.90;;;;;;5018948;28;20026;-75
2022/05/13 03:35:06;;;;;;;4.85;1.60;;;23.30;43.80;;;;;;5012185;28;20382;-75
2022/05/13 03:37:32;;;;;;;3.08;1.60;;;23.20;43.60;;;;;;5012892;28;20022;-75
2022/05/13 03:39:58;;;;;;;3.13;1.52;;;23.20;43.60;;;;;;5010045;28;20026;-75
2022/05/13 03:42:23;;;;;;;4.22;1.83;;;23.20;43.70;;;;;;5017261;28;20106;-74
2022/05/13 03:44:50;;;;;;;4.32;1.77;;;23.20;43.80;;;;;;5024220;28;20018;-75
2022/05/13 03:47:16;;;;;;;5.25;1.50;;;23.20;43.80;;;;;;5017608;28;20022;-75
2022/05/13 03:49:42;;;;;;;5.35;1.70;;;23.20;43.80;;;;;;4978278;28;20511;-75
2022/05/13 03:52:10;;;;;;;4.57;1.90;;;23.20;43.90;;;;;;5012877;28;20364;-75
2022/05/13 03:54:35;;;;;;;5.45;1.60;;;23.20;43.90;;;;;;5019121;28;20058;-75
2022/05/13 03:57:02;;;;;;;3.85;1.60;;;23.20;43.80;;;;;;5030508;28;20063;-75
2022/05/13 03:59:28;;;;;;;3.30;1.50;;;23.20;43.90;;;;;;5023199;28;20030;-74
2022/05/13 04:01:54;;;;;;;4.30;1.80;;;23.20;44.00;;;;;;5009417;28;20014;-76
2022/05/13 04:04:22;;;;;;;4.88;1.70;;;23.20;44.00;;;;;;5011627;28;20083;-75
2022/05/13 04:09:33;;;;;;;5.38;1.73;;;23.20;44.10;;;;;;5012499;28;20418;-75
2022/05/13 04:17:27;;;;;;;4.97;1.90;;;23.20;44.10;;;;;;5012170;28;20021;-74
2022/05/13 04:19:55;;;;;;;6.70;1.90;;;23.20;44.20;;;;;;4978586;28;20080;-75
2022/05/13 04:22:24;;;;;;;4.57;1.65;;;23.20;44.40;;;;;;5018438;28;21858;-74
2022/05/13 04:24:52;;;;;;;6.97;1.80;;;23.20;44.60;;;;;;5023344;28;20026;-75
2022/05/13 04:27:18;;;;;;;6.18;1.75;;;23.20;44.60;;;;;;5023801;28;20026;-74
2022/05/13 04:29:44;;;;;;;5.43;2.00;;;23.20;44.60;;;;;;5010595;28;20112;-74
2022/05/13 04:32:10;;;;;;;7.40;2.10;;;23.20;44.60;;;;;;4991326;28;20121;-74
2022/05/13 04:34:35;;;;;;;6.88;1.88;;;23.20;44.60;;;;;;5011309;28;20038;-74
2022/05/13 04:37:02;;;;;;;5.53;1.90;;;23.20;44.70;;;;;;5017616;28;20036;-74
2022/05/13 04:39:29;;;;;;;5.82;1.77;;;23.20;44.70;;;;;;5020658;28;20034;-74
2022/05/13 04:44:40;;;;;;;2.83;1.77;;;23.20;44.70;;;;;;5018327;28;20026;-74
2022/05/13 04:48:15;;;;;;;3.80;1.70;;;23.20;44.70;;;;;;5012009;28;20496;-74
2022/05/13 04:49:55;;;;;;;3.37;1.73;;;23.30;44.80;;;;;;5010894;28;20026;-74
2022/05/13 04:52:22;;;;;;;4.43;1.70;;;23.20;44.70;;;;;;5011819;28;20076;-74
2022/05/13 04:54:48;;;;;;;5.63;1.90;;;23.30;44.80;;;;;;5018040;28;20029;-74
2022/05/13 04:57:13;;;;;;;6.50;1.80;;;23.30;44.80;;;;;;5017174;28;20113;-74
2022/05/13 04:59:39;;;;;;;5.05;1.63;;;23.30;44.80;;;;;;5011033;28;20045;-74
2022/05/13 05:02:05;;;;;;;4.00;1.60;;;23.30;44.80;;;;;;5011210;28;20029;-74
2022/05/13 05:04:30;;;;;;;5.85;2.20;;;23.30;44.90;;;;;;5010637;28;20042;-74
2022/05/13 05:06:56;;;;;;;4.07;2.08;;;23.30;44.90;;;;;;5011373;28;20033;-74
2022/05/13 05:09:22;;;;;;;2.78;1.70;;;23.30;44.90;;;;;;5011881;28;20160;-74
2022/05/13 05:11:47;;;;;;;5.10;1.90;;;23.30;45.00;;;;;;5018748;28;20054;-74
2022/05/13 05:14:13;;;;;;;4.72;2.00;;;23.30;45.00;;;;;;4976699;28;20033;-74
2022/05/13 05:16:39;;;;;;;4.60;2.08;;;23.30;45.00;;;;;;5010659;28;20022;-74
2022/05/13 05:19:06;;;;;;;4.43;2.00;;;23.30;45.10;;;;;;4991068;28;20033;-74
2022/05/13 05:21:32;;;;;;;5.88;2.10;;;23.20;45.10;;;;;;5011663;28;20494;-74
2022/05/13 05:23:58;;;;;;;4.55;1.90;;;23.30;45.10;;;;;;5010331;28;20024;-75
2022/05/13 05:26:23;;;;;;;4.20;1.80;;;23.20;45.10;;;;;;5018403;28;20548;-74
2022/05/13 05:28:51;;;;;;;4.22;2.30;;;23.20;45.10;;;;;;5023124;28;20061;-74
2022/05/13 05:31:17;;;;;;;4.07;1.90;;;23.30;45.20;;;;;;5011252;28;20018;-74
2022/05/13 05:33:43;;;;;;;4.25;2.20;;;23.20;45.20;;;;;;5009484;28;20545;-74
2022/05/13 05:36:08;;;;;;;2.67;1.90;;;23.20;45.20;;;;;;5011550;28;20034;-74
2022/05/13 05:38:34;;;;;;;5.20;2.10;;;23.20;45.20;;;;;;5010473;28;20029;-74
2022/05/13 05:41:01;;;;;;;6.43;2.30;;;23.20;45.20;;;;;;5018201;28;20018;-74
2022/05/13 05:43:28;;;;;;;5.53;1.92;;;23.30;45.30;;;;;;5014330;28;20018;-74
2022/05/13 05:45:54;;;;;;;5.15;2.00;;;23.20;45.30;;;;;;5017483;28;20518;-75
2022/05/13 05:48:23;;;;;;;6.22;1.92;;;23.20;45.30;;;;;;5008057;28;20061;-74
2022/05/13 05:50:53;;;;;;;5.47;2.25;;;23.30;45.30;;;;;;5007495;28;20675;-74
2022/05/13 05:57:13;;;;;;;5.28;2.00;;;23.30;45.30;;;;;;5010645;28;20438;-74
2022/05/13 05:58:51;;;;;;;5.80;2.28;;;23.30;45.30;;;;;;5016446;28;20022;-74
2022/05/13 06:01:17;;;;;;;4.75;2.30;;;23.30;45.30;;;;;;5022363;28;20662;-74
2022/05/13 06:03:43;;;;;;;5.82;2.13;;;23.30;45.40;;;;;;5009721;28;20033;-74
2022/05/13 06:06:09;;;;;;;6.22;2.10;;;23.30;45.30;;;;;;5010735;28;20534;-74
2022/05/13 06:08:35;;;;;;;4.35;1.77;;;23.30;45.40;;;;;;5010605;28;20026;-74
2022/05/13 06:11:01;;;;;;;4.70;2.20;;;23.30;45.50;;;;;;5009984;28;20405;-75
2022/05/13 06:13:27;;;;;;;4.63;1.90;;;23.30;45.40;;;;;;5009870;28;20030;-74
2022/05/13 06:15:52;;;;;;;4.28;2.10;;;23.30;45.40;;;;;;5023283;28;20029;-74
2022/05/13 06:18:18;;;;;;;5.53;2.15;;;23.30;45.20;;;;;;5002045;28;20014;-74
2022/05/13 06:20:44;;;;;;;3.03;1.95;;;23.30;45.50;;;;;;5013710;28;20026;-75
2022/05/13 06:23:10;;;;;;;3.97;2.00;;;23.30;45.40;;;;;;5008850;28;20073;-74
2022/05/13 06:25:36;;;;;;;4.53;2.10;;;23.30;45.30;;;;;;5008885;28;20080;-74
2022/05/13 06:28:05;;;;;;;4.97;2.00;;;23.30;45.50;;;;;;5004422;28;20113;-74
2022/05/13 06:30:33;;;;;;;5.53;2.10;;;23.30;45.40;;;;;;5014725;28;20551;-74
2022/05/13 06:32:59;;;;;;;5.15;1.98;;;23.30;45.40;;;;;;5026803;28;20287;-74
2022/05/13 06:35:27;;;;;;;4.60;1.83;;;23.30;45.50;;;;;;5021861;28;20490;-74
2022/05/13 06:37:53;;;;;;;6.05;2.60;;;23.30;45.30;;;;;;5013863;28;20029;-74
2022/05/13 06:40:19;;;;;;;7.10;2.08;;;23.30;45.30;;;;;;4996345;28;20029;-74
2022/05/13 06:42:45;;;;;;;4.65;2.20;;;23.30;45.30;;;;;;5012932;28;20160;-75
2022/05/13 06:45:12;;;;;;;5.03;2.10;;;23.30;45.20;;;;;;5021239;28;20119;-74
2022/05/13 06:47:37;;;;;;;3.75;2.17;;;23.30;45.50;;;;;;5019752;28;20394;-75
2022/05/13 06:50:06;;;;;;;4.10;1.92;;;23.30;45.20;;;;;;5027251;28;20021;-74
2022/05/13 06:52:32;;;;;;;5.75;2.13;;;23.30;45.30;;;;;;5015869;28;20104;-74
2022/05/13 06:54:57;;;;;;;7.07;2.10;;;23.30;45.40;;;;;;5012669;28;20026;-74
2022/05/13 06:57:23;;;;;;;4.25;2.10;;;23.40;45.40;;;;;;5012325;28;20092;-74
2022/05/13 06:59:49;;;;;;;6.68;2.13;;;23.30;45.40;;;;;;5010858;28;20029;-74
2022/05/13 07:02:17;;;;;;;4.90;2.17;;;23.30;45.30;;;;;;4995024;28;20018;-74
2022/05/13 07:04:46;;;;;;;6.15;2.30;;;23.30;45.30;;;;;;5019288;28;20044;-74
2022/05/13 07:07:13;;;;;;;4.53;2.15;;;23.30;45.40;;;;;;5021416;28;20030;-74
2022/05/13 07:09:39;;;;;;;5.28;2.47;;;23.30;45.50;;;;;;5003156;28;20026;-75
2022/05/13 07:12:06;;;;;;;8.52;2.53;;;23.30;45.40;;;;;;5014175;28;20022;-75
2022/05/13 07:14:34;;;;;;;7.00;2.67;;;23.40;45.50;;;;;;4979688;28;20034;-77
2022/05/13 07:17:03;;;;;;;7.03;2.95;;;23.30;45.40;;;;;;4996868;28;20030;-76
2022/05/13 07:19:29;;;;;;;7.20;2.67;;;23.30;45.20;;;;;;5014585;28;20045;-76
2022/05/13 07:21:55;;;;;;;6.93;2.40;;;23.30;45.70;;;;;;5030641;28;20014;-77
2022/05/13 07:24:21;;;;;;;4.80;2.42;;;23.40;45.40;;;;;;5025029;28;20105;-77
2022/05/13 07:26:46;;;;;;;12.68;3.53;;;23.40;45.10;;;;;;5013954;28;20080;-77
2022/05/13 07:29:12;;;;;;;22.60;4.35;;;23.40;49.40;;;;;;5013573;28;20534;-77
2022/05/13 07:31:39;;;;;;;11.95;3.35;;;23.30;51.70;;;;;;5004466;28;20033;-77
2022/05/13 07:34:05;;;;;;;10.98;3.35;;;23.30;47.90;;;;;;5003734;28;20041;-77
2022/05/13 07:36:32;;;;;;;15.90;3.53;;;23.30;46.90;;;;;;5016879;28;20033;-78
2022/05/13 07:41:42;;;;;;;14.93;4.03;;;23.30;46.60;;;;;;4996462;28;20037;-74
2022/05/13 07:44:08;;;;;;;18.13;3.63;;;23.40;50.30;;;;;;5012909;28;20044;-77
2022/05/13 07:46:34;;;;;;;18.35;3.28;;;23.50;48.70;;;;;;5012740;28;20045;-78
2022/05/13 07:48:59;;;;;;;25.15;4.75;;;23.50;49.30;;;;;;4979466;28;20041;-77
2022/05/13 07:51:26;;;;;;;19.67;4.32;;;23.60;52.10;;;;;;5011327;28;20014;-77
2022/05/13 07:54:01;;;;;;;22.17;4.70;;;23.60;51.80;;;;;;5008471;28;20029;-77
2022/05/13 07:56:26;;;;;;;15.35;4.00;;;23.70;52.60;;;;;;4987795;28;20061;-74
2022/05/13 07:58:53;;;;;;;18.85;4.55;;;23.70;51.10;;;;;;5007071;28;20018;-73
2022/05/13 08:01:18;;;;;;;20.30;5.05;;;23.70;52.00;;;;;;5005821;28;20059;-74
2022/05/13 08:03:44;;;;;;;22.42;5.20;;;23.50;54.70;;;;;;5012919;28;20690;-73
2022/05/13 08:06:13;;;;;;;16.38;8.90;;;23.40;50.90;;;;;;5016385;28;20393;-73
2022/05/13 08:08:42;;;;;;;27.90;18.83;;;23.40;51.00;;;;;;5024495;28;20499;-74
2022/05/13 08:11:11;;;;;;;25.83;16.23;;;23.30;48.40;;;;;;4983879;28;20088;-74
2022/05/13 08:13:38;;;;;;;26.08;12.00;;;23.30;46.00;;;;;;5007781;28;20028;-75
2022/05/13 08:16:06;;;;;;;23.00;9.90;;;23.20;48.60;;;;;;5006912;28;20084;-74
2022/05/13 08:18:32;;;;;;;15.63;7.22;;;23.20;47.00;;;;;;4996759;28;20030;-74
2022/05/13 08:20:59;;;;;;;21.75;7.22;;;23.20;47.40;;;;;;5008215;28;20475;-75
2022/05/13 08:23:25;;;;;;;12.00;6.07;;;23.20;46.60;;;;;;5016833;28;20025;-75
2022/05/13 08:25:50;;;;;;;15.98;5.55;;;23.20;46.50;;;;;;5011061;28;20087;-75
2022/05/13 08:28:19;;;;;;;12.13;5.47;;;23.10;44.40;;;;;;4993501;28;20108;-75
2022/05/13 08:30:45;;;;;;;25.73;5.40;;;23.10;43.90;;;;;;5011018;28;20029;-74
2022/05/13 08:33:12;;;;;;;16.65;5.25;;;23.10;45.00;;;;;;5008094;28;20068;-75
2022/05/13 08:35:41;;;;;;;10.70;4.40;;;23.10;44.60;;;;;;5013756;28;20715;-76
2022/05/13 08:38:09;;;;;;;10.30;4.28;;;23.10;45.20;;;;;;5010326;28;20511;-75
2022/05/13 08:40:45;;;;;;;10.02;4.30;;;23.10;45.60;;;;;;4993959;28;20406;-75
2022/05/13 08:43:15;;;;;;;11.05;4.43;;;23.00;45.20;;;;;;5012396;28;20117;-75
2022/05/13 08:45:54;;;;;;;12.77;4.45;;;23.00;45.10;;;;;;5012872;28;20382;-75
2022/05/13 08:48:30;;;;;;;11.32;4.55;;;23.00;44.70;;;;;;5023864;28;20025;-74
2022/05/13 08:51:17;;;;;;;14.65;4.68;;;23.00;45.20;;;;;;5024577;28;20167;-75
2022/05/13 08:54:11;;;;;;;15.13;4.55;;;22.90;45.00;;;;;;5031833;28;20482;-74
2022/05/13 08:56:38;;;;;;;12.68;4.40;;;22.90;44.90;;;;;;5029306;28;20519;-74
2022/05/13 08:59:16;;;;;;;14.68;5.10;;;22.90;45.50;;;;;;5032168;28;20096;-75
2022/05/13 09:02:01;;;;;;;10.05;4.30;;;22.90;45.10;;;;;;5022925;28;20395;-74
2022/05/13 09:04:37;;;;;;;14.88;5.20;;;22.90;45.10;;;;;;5010842;28;20021;-75
2022/05/13 09:07:14;;;;;;;10.60;4.22;;;22.90;44.80;;;;;;5007927;28;20037;-74
2022/05/13 09:09:52;;;;;;;11.93;4.70;;;22.90;45.10;;;;;;4977599;28;20030;-73
2022/05/13 09:12:41;;;;;;;14.73;4.50;;;22.80;44.70;;;;;;5010293;28;20036;-74
2022/05/13 09:15:45;;;;;;;11.30;3.95;;;22.90;44.50;;;;;;4989431;28;20041;-75
2022/05/13 09:19:03;;;;;;;9.57;4.03;;;22.80;44.00;;;;;;4983011;28;20030;-74
2022/05/13 09:21:33;;;;;;;9.80;3.67;;;22.90;44.50;;;;;;4947970;28;20151;-74
2022/05/13 09:24:12;;;;;;;10.80;3.78;;;22.90;45.00;;;;;;4990952;28;20034;-74
2022/05/13 09:26:45;;;;;;;9.93;3.67;;;22.90;44.10;;;;;;4976807;28;20037;-75
2022/05/13 09:29:17;;;;;;;14.77;3.70;;;22.90;43.90;;;;;;4993098;28;20044;-74
2022/05/13 09:32:00;;;;;;;11.35;3.17;;;22.90;43.70;;;;;;5005426;28;20029;-74
2022/05/13 09:34:39;;;;;;;8.10;2.75;;;22.90;43.60;;;;;;5029899;28;20047;-75
2022/05/13 09:37:39;;;;;;;10.35;2.75;;;22.90;43.40;;;;;;5013780;28;20375;-75
2022/05/13 09:40:07;;;;;;;;;;;22.90;43.20;;;;;;5021141;28;20022;-74
2022/05/13 09:42:39;;;;;;;10.73;2.80;;;23.00;43.20;;;;;;4997817;28;19909;-74
2022/05/13 09:45:17;;;;;;;72.55;48.88;;;22.90;42.30;;;;;;5005341;28;20036;-75
2022/05/13 09:47:57;;;;;;;17.63;7.70;;;23.00;42.90;;;;;;5030167;28;20045;-75
2022/05/13 09:50:25;;;;;;;;;;;22.90;42.20;;;;;;5031604;28;20033;-75
2022/05/13 09:52:52;;;;;;;31.55;19.45;;;22.90;42.30;;;;;;5031077;28;19909;-76
2022/05/13 09:55:38;;;;;;;19.75;10.88;;;22.90;41.70;;;;;;5013700;28;20033;-75
2022/05/13 09:58:10;;;;;;;15.35;7.75;;;22.90;43.10;;;;;;5019294;28;20586;-74
2022/05/13 10:00:39;;;;;;;14.98;5.50;;;22.90;42.10;;;;;;5026530;28;20026;-75
2022/05/13 10:03:16;;;;;;;;;;;22.90;42.90;;;;;;5006419;28;20018;-74
2022/05/13 10:05:42;;;;;;;16.38;6.35;;;23.00;42.40;;;;;;5029876;28;19913;-74
2022/05/13 10:08:13;;;;;;;12.07;4.78;;;22.90;42.30;;;;;;5031214;28;20075;-74
2022/05/13 10:14:00;;;;;;;12.00;4.65;;;22.90;42.30;;;;;;5019446;28;20045;-74
2022/05/13 10:16:38;;;;;;;13.80;3.72;;;22.90;41.90;;;;;;5003006;28;20026;-74
2022/05/13 10:19:41;;;;;;;11.65;3.50;;;22.90;41.90;;;;;;5010155;28;20449;-73
2022/05/13 10:22:22;;;;;;;13.23;4.03;;;23.00;43.20;;;;;;4980363;28;20053;-73
2022/05/13 10:24:55;;;;;;;11.82;3.60;;;23.00;42.50;;;;;;4978439;28;20026;-74
2022/05/13 10:27:35;;;;;;;13.57;3.95;;;23.00;43.30;;;;;;4993706;28;20132;-74
2022/05/13 10:30:17;;;;;;;;;;;23.10;42.60;;;;;;4982526;28;20034;-73
2022/05/13 10:33:02;;;;;;;10.02;2.85;;;23.00;42.40;;;;;;4994980;28;19944;-73
2022/05/13 10:35:37;;;;;;;9.55;3.05;;;23.00;42.10;;;;;;4990570;28;20038;-74
2022/05/13 10:38:14;;;;;;;11.05;3.30;;;23.00;42.00;;;;;;4990290;28;20080;-73
2022/05/13 10:40:45;;;;;;;11.45;3.15;;;22.90;42.30;;;;;;4991312;28;20027;-73
2022/05/13 10:43:20;;;;;;;11.70;3.63;;;22.90;41.70;;;;;;5013685;28;20018;-73
2022/05/13 10:45:48;;;;;;;8.52;2.90;;;22.80;42.80;;;;;;5021475;28;20034;-74
2022/05/13 10:48:28;;;;;;;9.43;3.13;;;22.70;42.80;;;;;;5030843;28;20068;-73
2022/05/13 10:51:06;;;;;;;;;;;22.70;42.90;;;;;;5031278;28;20128;-74
2022/05/13 10:53:45;;;;;;;9.10;2.70;;;22.70;42.50;;;;;;5030486;28;19913;-74
2022/05/13 10:57:02;;;;;;;9.65;2.88;;;22.70;42.40;;;;;;5023306;28;20402;-73
2022/05/13 10:59:43;;;;;;;9.48;2.45;;;22.60;42.70;;;;;;4983018;28;20041;-74
2022/05/13 11:02:40;;;;;;;7.80;2.42;;;22.60;41.90;;;;;;4993733;28;20104;-74
2022/05/13 11:05:26;;;;;;;8.50;2.33;;;22.70;42.00;;;;;;5010009;28;20075;-74
2022/05/13 11:08:17;;;;;;;6.53;2.20;;;22.70;42.30;;;;;;4993389;28;20038;-74
2022/05/13 11:10:49;;;;;;;9.60;2.45;;;22.80;41.90;;;;;;5009986;28;20036;-75
2022/05/13 11:13:52;;;;;;;9.20;2.25;;;22.80;41.70;;;;;;5022304;28;20022;-75
2022/05/13 11:16:42;;;;;;;10.32;2.42;;;22.80;42.00;;;;;;4994208;28;20368;-75
2022/05/13 11:19:18;;;;;;;9.25;2.22;;;22.90;41.80;;;;;;4995325;28;20030;-74
2022/05/13 11:22:03;;;;;;;5.88;1.98;;;22.90;41.70;;;;;;5013842;28;20487;-73
2022/05/13 11:27:51;;;;;;;21.42;8.63;;;22.80;41.60;;;;;;5033497;28;20041;-73
2022/05/13 11:30:19;;;;;;;17.50;7.85;;;23.00;40.70;;;;;;5033490;28;20026;-74
2022/05/13 11:33:02;;;;;;;14.02;6.57;;;23.40;40.20;;;;;;5033489;28;20485;-73
2022/05/13 11:35:38;;;;;;;15.77;6.95;;;23.60;39.20;;;;;;5032343;28;20464;-74
2022/05/13 11:38:18;;;;;;;16.15;6.15;;;23.40;39.50;;;;;;5030999;28;20022;-75
2022/05/13 11:41:14;;;;;;;15.13;5.85;;;23.30;39.60;;;;;;5007573;28;20037;-75
2022/05/13 11:43:53;;;;;;;15.65;6.90;;;23.20;39.50;;;;;;5030595;28;20048;-75
2022/05/13 11:46:41;;;;;;;17.55;5.80;;;23.20;40.00;;;;;;5031171;28;20543;-76
2022/05/13 11:49:22;;;;;;;17.48;4.68;;;23.20;40.40;;;;;;5031908;28;20038;-73
2022/05/13 11:51:48;;;;;;;11.50;4.15;;;23.10;40.50;;;;;;5025191;28;20033;-73
2022/05/13 11:54:24;;;;;;;15.38;3.95;;;23.00;40.60;;;;;;5024791;28;20030;-75
2022/05/13 11:57:16;;;;;;;10.73;4.25;;;23.00;40.40;;;;;;4992924;28;20032;-72
2022/05/13 11:59:55;;;;;;;16.20;3.70;;;22.90;40.30;;;;;;4976499;28;20498;-72
2022/05/13 12:02:33;;;;;;;16.48;3.78;;;22.90;40.40;;;;;;4976457;28;20096;-73
2022/05/13 12:05:06;;;;;;;16.55;3.83;;;22.90;40.30;;;;;;5000632;28;20076;-73
2022/05/13 12:07:58;;;;;;;21.65;4.65;;;22.90;40.60;;;;;;5022926;28;20030;-73
2022/05/13 12:10:44;;;;;;;22.67;3.97;;;22.90;40.60;;;;;;5025908;28;20569;-74
2022/05/13 12:13:32;;;;;;;18.10;4.93;;;23.00;40.90;;;;;;5032801;28;20033;-74
2022/05/13 12:16:09;;;;;;;22.83;9.38;;;23.00;40.60;;;;;;5015085;28;20155;-74
2022/05/13 12:18:53;;;;;;;17.08;5.70;;;23.00;40.40;;;;;;5012579;28;20645;-74
2022/05/13 12:21:38;;;;;;;16.17;5.22;;;23.00;40.50;;;;;;5020532;28;20017;-76
2022/05/13 12:24:19;;;;;;;19.52;5.25;;;22.90;39.60;;;;;;4974501;28;20407;-76
2022/05/13 12:26:51;;;;;;;15.90;4.70;;;22.90;40.60;;;;;;4992719;28;20034;-76
2022/05/13 12:29:38;;;;;;;14.93;5.28;;;23.00;40.20;;;;;;4993032;28;20053;-77
2022/05/13 12:32:04;;;;;;;14.30;6.05;;;23.00;40.30;;;;;;4993223;28;20111;-76
2022/05/13 12:37:36;;;;;;;16.00;5.10;;;23.00;40.50;;;;;;5031361;28;20026;-77
2022/05/13 12:40:02;;;;;;;10.82;4.00;;;23.00;40.60;;;;;;5020056;28;20037;-76
2022/05/13 12:42:46;;;;;;;10.57;4.57;;;23.00;40.80;;;;;;5032365;28;20409;-76
2022/05/13 12:45:21;;;;;;;15.23;5.40;;;23.00;40.90;;;;;;5031269;28;20510;-76
2022/05/13 12:48:06;;;;;;;14.18;5.30;;;23.00;41.00;;;;;;5027669;28;20037;-76
2022/05/13 12:50:46;;;;;;;14.68;4.80;;;23.00;41.00;;;;;;5030102;28;20037;-76
2022/05/13 12:53:30;;;;;;;;;;;23.00;41.20;;;;;;5032477;28;20108;-77
2022/05/13 12:56:18;;;;;;;15.85;5.00;;;23.00;41.30;;;;;;5014526;28;19962;-77
2022/05/13 12:58:47;;;;;;;12.80;4.50;;;23.00;41.60;;;;;;5014460;28;20026;-77
2022/05/13 13:01:15;;;;;;;13.43;4.68;;;23.00;41.60;;;;;;5025731;28;20032;-77
2022/05/13 13:03:44;;;;;;;14.95;5.05;;;23.00;41.60;;;;;;5022685;28;20036;-77
2022/05/13 13:06:17;;;;;;;12.70;4.63;;;23.10;42.40;;;;;;5014295;28;20040;-77
2022/05/13 13:08:52;;;;;;;14.75;5.28;;;23.10;41.80;;;;;;5030705;28;20160;-77
2022/05/13 13:11:35;;;;;;;12.95;5.32;;;23.10;42.30;;;;;;4998214;28;20041;-77
2022/05/13 13:14:21;;;;;;;14.50;6.18;;;23.10;42.30;;;;;;5029746;28;20087;-77
2022/05/13 13:17:02;;;;;;;13.50;5.50;;;23.10;42.40;;;;;;5023795;28;20040;-77
2022/05/13 13:19:29;;;;;;;17.55;5.43;;;23.10;42.50;;;;;;4997751;28;20517;-77
2022/05/13 13:22:01;;;;;;;16.98;5.25;;;23.10;42.40;;;;;;5030511;28;20565;-77
2022/05/13 13:24:34;;;;;;;19.83;6.45;;;23.10;42.80;;;;;;5031563;28;20437;-77
2022/05/13 13:27:01;;;;;;;18.15;6.32;;;23.10;42.50;;;;;;5012341;28;20026;-77
2022/05/13 13:29:42;;;;;;;15.10;5.05;;;23.10;42.80;;;;;;4989525;28;20022;-77
2022/05/13 13:32:17;;;;;;;12.85;5.05;;;23.00;42.60;;;;;;5031572;28;20025;-77
2022/05/13 13:34:52;;;;;;;17.75;5.57;;;23.10;42.60;;;;;;5030121;28;20400;-77